createdAt,value
2018-11-12T00:00:17.359Z,6.40
2018-11-12T00:02:48.306Z,6.53
2018-11-12T00:05:17.415Z,6.87
2018-11-12T00:07:46.032Z,6.43
2018-11-12T00:10:14.571Z,8.37
2018-11-12T00:12:43.153Z,9.73
2018-11-12T00:15:12.390Z,7.30
2018-11-12T00:17:40.962Z,7.23
2018-11-12T00:20:10.687Z,7.47
2018-11-12T00:22:39.263Z,7.20
2018-11-12T00:25:08.191Z,8.13
2018-11-12T00:27:37.200Z,9.03
2018-11-12T00:30:09.069Z,8.50
2018-11-12T00:32:37.634Z,8.27
2018-11-12T00:35:07.550Z,7.60
2018-11-12T00:37:43.411Z,7.53
2018-11-12T00:40:14.434Z,7.20
2018-11-12T00:42:43.775Z,7.60
2018-11-12T00:45:12.738Z,7.57
2018-11-12T00:47:41.480Z,7.47
2018-11-12T00:50:11.469Z,9.33
2018-11-12T00:52:40.185Z,7.80
2018-11-12T00:55:10.399Z,7.47
2018-11-12T00:57:39.298Z,7.30
2018-11-12T01:00:12.098Z,7.20
2018-11-12T01:02:42.098Z,7.70
2018-11-12T01:05:10.637Z,7.63
2018-11-12T01:07:39.192Z,7.83
2018-11-12T01:10:09.582Z,8.20
2018-11-12T01:12:38.130Z,7.93
2018-11-12T01:15:09.035Z,7.60
2018-11-12T01:17:37.736Z,8.87
2018-11-12T01:20:07.088Z,8.50
2018-11-12T01:22:35.679Z,7.97
2018-11-12T01:25:04.310Z,8.20
2018-11-12T01:27:32.879Z,8.50
2018-11-12T01:30:01.675Z,8.93
2018-11-12T01:32:30.225Z,8.37
2018-11-12T01:34:58.769Z,7.73
2018-11-12T01:37:27.345Z,7.47
2018-11-12T01:39:55.943Z,8.33
2018-11-12T01:42:24.491Z,7.57
2018-11-12T01:44:53.243Z,8.20
2018-11-12T01:47:21.764Z,7.80
2018-11-12T01:49:50.305Z,8.10
2018-11-12T01:52:18.851Z,8.07
2018-11-12T01:54:47.403Z,8.43
2018-11-12T01:57:15.967Z,8.03
2018-11-12T01:59:44.515Z,8.40
2018-11-12T02:02:13.101Z,7.90
2018-11-12T02:04:41.708Z,8.80
2018-11-12T02:07:10.237Z,8.03
2018-11-12T02:09:38.791Z,8.30
2018-11-12T02:12:07.322Z,8.27
2018-11-12T02:14:35.890Z,9.40
2018-11-12T02:17:04.414Z,8.47
2018-11-12T02:19:32.992Z,8.70
2018-11-12T02:22:01.517Z,8.80
2018-11-12T02:24:30.076Z,10.90
2018-11-12T02:26:58.587Z,9.83
2018-11-12T02:29:27.135Z,9.07
2018-11-12T02:31:55.673Z,9.53
2018-11-12T02:34:24.263Z,8.93
2018-11-12T02:36:52.807Z,9.10
2018-11-12T02:39:21.458Z,8.47
2018-11-12T02:41:49.981Z,9.23
2018-11-12T02:44:18.569Z,9.03
2018-11-12T02:46:47.132Z,8.43
2018-11-12T02:49:15.680Z,8.10
2018-11-12T02:51:44.413Z,9.50
2018-11-12T02:54:13.272Z,8.40
2018-11-12T02:56:41.795Z,8.43
2018-11-12T02:59:10.324Z,9.30
2018-11-12T03:01:38.871Z,8.07
2018-11-12T03:04:07.418Z,8.20
2018-11-12T03:06:35.955Z,7.30
2018-11-12T03:09:11.271Z,7.67
2018-11-12T03:11:40.224Z,7.87
2018-11-12T03:14:09.381Z,8.40
2018-11-12T03:16:38.236Z,8.43
2018-11-12T03:19:06.859Z,7.93
2018-11-12T03:21:35.369Z,7.30
2018-11-12T03:24:04.025Z,7.97
2018-11-12T03:26:32.547Z,8.43
2018-11-12T03:29:01.141Z,8.17
2018-11-12T03:31:29.666Z,8.20
2018-11-12T03:33:58.507Z,7.00
2018-11-12T03:36:27.046Z,7.10
2018-11-12T03:38:55.589Z,7.23
2018-11-12T03:41:24.559Z,8.33
2018-11-12T03:43:53.222Z,8.27
2018-11-12T03:46:21.747Z,8.13
2018-11-12T03:48:50.288Z,8.37
2018-11-12T03:51:18.818Z,8.73
2018-11-12T03:53:47.384Z,8.60
2018-11-12T03:56:15.903Z,7.90
2018-11-12T03:58:44.423Z,9.10
2018-11-12T04:01:12.976Z,8.83
2018-11-12T04:03:41.589Z,7.50
2018-11-12T04:06:10.143Z,7.87
2018-11-12T04:08:38.689Z,7.07
2018-11-12T04:11:07.267Z,7.27
2018-11-12T04:13:35.796Z,8.00
2018-11-12T04:16:04.460Z,7.80
2018-11-12T04:18:32.997Z,9.20
2018-11-12T04:21:01.545Z,8.97
2018-11-12T04:23:30.060Z,9.17
2018-11-12T04:25:58.740Z,8.07
2018-11-12T04:28:27.278Z,9.10
2018-11-12T04:30:55.822Z,7.90
2018-11-12T04:33:24.352Z,7.63
2018-11-12T04:35:52.906Z,8.50
2018-11-12T04:38:21.436Z,8.90
2018-11-12T04:40:49.956Z,9.87
2018-11-12T04:43:18.551Z,9.00
2018-11-12T04:45:47.243Z,11.37
2018-11-12T04:48:15.654Z,10.63
2018-11-12T04:50:44.187Z,11.40
2018-11-12T04:53:12.741Z,10.60
2018-11-12T04:55:41.291Z,12.40
2018-11-12T04:58:09.839Z,10.60
2018-11-12T05:00:38.356Z,11.17
2018-11-12T05:03:06.948Z,11.70
2018-11-12T05:05:35.470Z,12.10
2018-11-12T05:08:04.026Z,12.43
2018-11-12T05:10:32.556Z,12.17
2018-11-12T05:13:01.108Z,12.17
2018-11-12T05:15:29.639Z,11.97
2018-11-12T05:17:58.227Z,12.83
2018-11-12T05:20:28.575Z,13.13
2018-11-12T05:22:57.734Z,13.80
2018-11-12T05:25:26.293Z,13.40
2018-11-12T05:27:54.844Z,13.00
2018-11-12T05:30:24.697Z,12.60
2018-11-12T05:32:53.277Z,13.63
2018-11-12T05:35:23.904Z,13.83
2018-11-12T05:37:52.708Z,14.83
2018-11-12T05:40:23.639Z,16.00
2018-11-12T05:42:52.293Z,16.90
2018-11-12T05:45:22.070Z,16.43
2018-11-12T05:47:50.636Z,20.13
2018-11-12T05:50:21.663Z,18.27
2018-11-12T05:52:51.463Z,18.83
2018-11-12T05:55:22.426Z,16.73
2018-11-12T05:57:50.976Z,18.87
2018-11-12T06:00:22.950Z,19.83
2018-11-12T06:02:51.520Z,18.47
2018-11-12T06:05:20.110Z,18.13
2018-11-12T06:07:48.637Z,17.23
2018-11-12T06:10:19.521Z,18.33
2018-11-12T06:12:48.372Z,20.00
2018-11-12T06:15:17.416Z,18.40
2018-11-12T06:17:46.861Z,18.63
2018-11-12T06:20:19.984Z,17.53
2018-11-12T06:22:48.574Z,18.43
2018-11-12T06:25:18.679Z,16.47
2018-11-12T06:27:47.555Z,18.07
2018-11-12T06:30:20.270Z,17.57
2018-11-12T06:32:48.852Z,19.60
2018-11-12T06:35:17.809Z,16.57
2018-11-12T06:37:47.165Z,16.60
2018-11-12T06:40:17.078Z,15.47
2018-11-12T06:42:45.760Z,16.67
2018-11-12T06:45:16.454Z,15.93
2018-11-12T06:47:45.976Z,15.83
2018-11-12T06:50:16.339Z,18.07
2018-11-12T06:52:44.987Z,15.87
2018-11-12T06:55:14.506Z,16.80
2018-11-12T06:57:43.430Z,18.20
2018-11-12T07:00:21.417Z,15.77
2018-11-12T07:02:50.098Z,14.67
2018-11-12T07:05:19.023Z,17.50
2018-11-12T07:07:47.577Z,24.43
2018-11-12T07:10:17.377Z,23.30
2018-11-12T07:12:46.897Z,31.47
2018-11-12T07:15:16.855Z,17.83
2018-11-12T07:17:45.383Z,13.07
2018-11-12T07:20:15.529Z,12.57
2018-11-12T07:22:44.531Z,13.97
2018-11-12T07:25:13.928Z,18.07
2018-11-12T07:27:42.428Z,14.40
2018-11-12T07:30:16.387Z,11.03
2018-11-12T07:32:45.446Z,7.80
2018-11-12T07:35:14.862Z,7.97
2018-11-12T07:37:44.675Z,7.37
2018-11-12T07:40:14.174Z,6.10
2018-11-12T07:42:43.024Z,6.83
2018-11-12T07:45:13.603Z,6.10
2018-11-12T07:47:43.408Z,6.10
2018-11-12T07:50:13.991Z,6.60
2018-11-12T07:52:42.736Z,6.80
2018-11-12T07:55:16.461Z,6.17
2018-11-12T07:57:46.083Z,7.47
2018-11-12T08:00:17.207Z,5.80
2018-11-12T08:02:46.784Z,6.40
2018-11-12T08:05:15.607Z,6.43
2018-11-12T08:07:44.984Z,8.20
2018-11-12T08:10:15.687Z,9.67
2018-11-12T08:12:45.700Z,8.00
2018-11-12T08:15:15.821Z,7.00
2018-11-12T08:17:44.608Z,8.20
2018-11-12T08:20:14.757Z,6.03
2018-11-12T08:22:44.532Z,5.53
2018-11-12T08:25:13.444Z,8.03
2018-11-12T08:27:42.627Z,5.87
2018-11-12T08:30:16.420Z,6.30
2018-11-12T08:32:45.750Z,5.30
2018-11-12T08:35:14.905Z,5.73
2018-11-12T08:37:43.750Z,6.07
2018-11-12T08:40:13.897Z,6.63
2018-11-12T08:42:42.789Z,5.53
2018-11-12T08:45:11.791Z,6.37
2018-11-12T08:47:41.186Z,6.40
2018-11-12T08:50:13.970Z,5.47
2018-11-12T08:52:43.868Z,6.90
2018-11-12T08:55:14.210Z,5.70
2018-11-12T08:57:44.345Z,5.47
2018-11-12T09:00:13.353Z,5.60
2018-11-12T09:02:42.931Z,5.37
2018-11-12T09:05:12.859Z,5.33
2018-11-12T09:07:42.604Z,5.60
2018-11-12T09:10:16.176Z,7.00
2018-11-12T09:12:45.263Z,7.20
2018-11-12T09:15:14.290Z,6.20
2018-11-12T09:17:43.681Z,5.87
2018-11-12T09:20:15.545Z,6.53
2018-11-12T09:22:44.874Z,6.23
2018-11-12T09:25:17.963Z,8.27
2018-11-12T09:27:46.602Z,7.20
2018-11-12T09:30:17.336Z,8.17
2018-11-12T09:32:46.212Z,7.03
2018-11-12T09:35:16.795Z,6.50
2018-11-12T09:37:47.248Z,6.57
2018-11-12T09:40:21.490Z,5.90
2018-11-12T09:42:50.356Z,6.70
2018-11-12T09:45:18.921Z,5.77
2018-11-12T09:47:47.766Z,6.43
2018-11-12T09:50:18.633Z,6.50
2018-11-12T09:52:48.405Z,5.57
2018-11-12T09:55:17.750Z,5.40
2018-11-12T09:57:47.809Z,6.93
2018-11-12T10:00:17.723Z,6.30
2018-11-12T10:02:48.195Z,5.77
2018-11-12T10:05:18.197Z,5.03
2018-11-12T10:07:48.591Z,6.77
2018-11-12T10:10:30.507Z,6.53
2018-11-12T10:12:57.396Z,5.33
2018-11-12T10:15:27.880Z,5.90
2018-11-12T10:17:55.820Z,4.83
2018-11-12T10:20:22.200Z,5.50
2018-11-12T10:22:50.767Z,5.20
2018-11-12T10:25:20.276Z,6.33
2018-11-12T10:27:49.086Z,8.37
2018-11-12T10:30:17.624Z,5.30
2018-11-12T10:32:46.184Z,5.63
2018-11-12T10:35:14.700Z,4.70
2018-11-12T10:37:43.272Z,4.80
2018-11-12T10:40:16.245Z,4.90
2018-11-12T10:42:45.372Z,4.97
2018-11-12T10:45:14.414Z,4.47
2018-11-12T10:47:43.420Z,6.40
2018-11-12T10:50:12.471Z,6.43
2018-11-12T10:52:41.039Z,7.50
2018-11-12T10:55:11.539Z,5.23
2018-11-12T10:57:40.503Z,4.37
2018-11-12T11:00:16.318Z,6.20
2018-11-12T11:02:50.265Z,5.70
2018-11-12T11:05:18.819Z,4.93
2018-11-12T11:07:47.482Z,5.03
2018-11-12T11:10:16.057Z,4.67
2018-11-12T11:12:45.427Z,13.07
2018-11-12T11:15:16.048Z,6.03
2018-11-12T11:17:44.791Z,5.63
2018-11-12T11:20:13.549Z,5.90
2018-11-12T11:22:42.079Z,5.90
2018-11-12T11:25:12.120Z,5.93
2018-11-12T11:27:44.447Z,7.37
2018-11-12T11:30:14.556Z,7.43
2018-11-12T11:32:43.613Z,5.10
2018-11-12T11:35:13.393Z,5.23
2018-11-12T11:37:42.004Z,5.30
2018-11-12T11:40:14.312Z,5.57
2018-11-12T11:42:43.124Z,6.63
2018-11-12T11:45:13.199Z,6.67
2018-11-12T11:47:42.456Z,9.70
2018-11-12T11:50:12.742Z,6.30
2018-11-12T11:52:41.320Z,5.43
2018-11-12T11:55:12.952Z,5.40
2018-11-12T11:57:41.839Z,4.67
2018-11-12T12:00:12.807Z,8.40
2018-11-12T12:02:41.730Z,4.90
2018-11-12T12:05:11.954Z,5.13
2018-11-12T12:07:40.539Z,7.60
2018-11-12T12:10:10.120Z,8.00
2018-11-12T12:12:38.660Z,6.73
2018-11-12T12:15:08.894Z,4.80
2018-11-12T12:17:37.869Z,6.00
2018-11-12T12:20:09.662Z,5.63
2018-11-12T12:22:38.246Z,6.73
2018-11-12T12:25:08.793Z,5.30
2018-11-12T12:27:37.402Z,5.63
2018-11-12T12:30:12.222Z,6.23
2018-11-12T12:32:41.125Z,5.53
2018-11-12T12:35:10.714Z,6.03
2018-11-12T12:37:39.551Z,4.50
2018-11-12T12:40:09.527Z,12.57
2018-11-12T12:42:38.456Z,9.73
2018-11-12T12:45:08.268Z,5.87
2018-11-12T12:47:36.796Z,4.10
2018-11-12T12:50:07.564Z,4.63
2018-11-12T12:52:36.138Z,4.70
2018-11-12T12:55:04.820Z,5.07
2018-11-12T12:57:33.390Z,4.40
2018-11-12T13:00:02.099Z,4.00
2018-11-12T13:02:30.533Z,5.40
2018-11-12T13:04:59.508Z,3.50
2018-11-12T13:07:28.039Z,3.90
2018-11-12T13:09:56.576Z,4.10
2018-11-12T13:12:25.126Z,4.27
2018-11-12T13:14:53.786Z,7.27
2018-11-12T13:17:22.624Z,4.33
2018-11-12T13:19:51.199Z,6.00
2018-11-12T13:22:19.821Z,5.33
2018-11-12T13:24:48.354Z,5.10
2018-11-12T13:27:16.936Z,4.43
2018-11-12T13:29:45.539Z,5.40
2018-11-12T13:32:14.088Z,4.80
2018-11-12T13:34:42.702Z,6.67
2018-11-12T13:37:11.263Z,6.80
2018-11-12T13:39:39.820Z,4.00
2018-11-12T13:42:08.361Z,6.17
2018-11-12T13:44:37.215Z,6.00
2018-11-12T13:47:06.445Z,6.43
2018-11-12T13:49:34.983Z,10.63
2018-11-12T13:52:03.571Z,15.77
2018-11-12T13:54:32.127Z,6.53
2018-11-12T13:57:00.729Z,7.67
2018-11-12T13:59:29.266Z,6.40
2018-11-12T14:01:57.825Z,7.70
2018-11-12T14:04:26.387Z,5.90
2018-11-12T14:06:54.975Z,5.37
2018-11-12T14:09:23.541Z,6.47
2018-11-12T14:11:52.149Z,6.07
2018-11-12T14:14:20.749Z,5.43
2018-11-12T14:16:49.316Z,5.43
2018-11-12T14:19:17.878Z,6.90
2018-11-12T14:21:46.548Z,5.70
2018-11-12T14:24:15.079Z,6.60
2018-11-12T14:26:43.634Z,6.47
2018-11-12T14:29:12.219Z,6.67
2018-11-12T14:31:40.847Z,7.07
2018-11-12T14:34:09.418Z,4.23
2018-11-12T14:36:38.010Z,3.17
2018-11-12T14:39:09.665Z,4.23
2018-11-12T14:41:38.262Z,6.47
2018-11-12T14:44:07.317Z,4.50
2018-11-12T14:46:35.906Z,5.27
2018-11-12T14:49:04.470Z,4.77
2018-11-12T14:51:32.988Z,5.67
2018-11-12T14:54:01.572Z,7.73
2018-11-12T14:56:30.291Z,5.77
2018-11-12T14:58:58.914Z,5.13
2018-11-12T15:01:27.500Z,5.67
2018-11-12T15:03:56.132Z,6.78
2018-11-12T15:06:24.696Z,7.70
2018-11-12T15:08:53.369Z,8.93
2018-11-12T15:11:21.994Z,5.80
2018-11-12T15:13:50.587Z,7.47
2018-11-12T15:16:19.118Z,6.37
2018-11-12T15:18:47.685Z,4.70
2018-11-12T15:21:16.246Z,5.37
2018-11-12T15:23:44.984Z,3.67
2018-11-12T15:26:13.571Z,3.70
2018-11-12T15:28:42.185Z,6.67
2018-11-12T15:31:10.772Z,4.93
2018-11-12T15:33:39.418Z,6.17
2018-11-12T15:36:08.002Z,3.57
2018-11-12T15:38:36.542Z,4.33
2018-11-12T15:41:05.716Z,5.57
2018-11-12T15:43:34.242Z,5.50
2018-11-12T15:46:02.783Z,3.60
2018-11-12T15:48:31.360Z,4.10
2018-11-12T15:50:59.993Z,9.33
2018-11-12T15:53:28.484Z,6.00
2018-11-12T15:55:57.117Z,5.47
2018-11-12T15:58:25.703Z,8.27
2018-11-12T16:00:54.275Z,5.30
2018-11-12T16:03:22.897Z,5.37
2018-11-12T16:05:51.466Z,8.50
2018-11-12T16:08:20.114Z,10.57
2018-11-12T16:10:49.836Z,6.40
2018-11-12T16:13:18.418Z,5.47
2018-11-12T16:15:47.127Z,7.60
2018-11-12T16:18:15.704Z,6.90
2018-11-12T16:20:44.242Z,8.47
2018-11-12T16:23:12.821Z,5.37
2018-11-12T16:25:41.381Z,5.43
2018-11-12T16:28:09.991Z,6.50
2018-11-12T16:30:38.546Z,8.10
2018-11-12T16:33:07.128Z,8.13
2018-11-12T16:35:36.269Z,7.37
2018-11-12T16:38:05.444Z,10.73
2018-11-12T16:40:34.762Z,9.67
2018-11-12T16:43:03.348Z,7.53
2018-11-12T16:45:31.945Z,5.83
2018-11-12T16:48:00.504Z,6.27
2018-11-12T16:50:29.053Z,21.93
2018-11-12T16:52:57.575Z,7.90
2018-11-12T16:55:26.172Z,6.80
2018-11-12T16:57:54.690Z,9.07
2018-11-12T17:00:24.328Z,6.07
2018-11-12T17:02:52.904Z,4.93
2018-11-12T17:05:22.887Z,6.30
2018-11-12T17:07:51.420Z,6.03
2018-11-12T17:10:21.444Z,6.47
2018-11-12T17:12:50.396Z,8.33
2018-11-12T17:15:18.966Z,7.00
2018-11-12T17:17:47.922Z,6.23
2018-11-12T17:20:18.011Z,5.80
2018-11-12T17:22:46.606Z,7.23
2018-11-12T17:25:15.897Z,5.47
2018-11-12T17:27:44.941Z,6.33
2018-11-12T17:30:16.767Z,4.23
2018-11-12T17:32:46.231Z,4.97
2018-11-12T17:35:15.978Z,13.97
2018-11-12T17:37:44.516Z,9.37
2018-11-12T17:40:20.583Z,10.73
2018-11-12T17:42:49.929Z,8.40
2018-11-12T17:45:20.032Z,5.37
2018-11-12T17:47:49.769Z,11.87
2018-11-12T17:50:18.418Z,6.67
2018-11-12T17:52:47.355Z,5.03
2018-11-12T17:55:15.974Z,7.10
2018-11-12T17:57:44.549Z,5.30
2018-11-12T18:00:19.754Z,6.90
2018-11-12T18:02:48.689Z,5.33
2018-11-12T18:05:17.471Z,6.67
2018-11-12T18:07:46.288Z,6.67
2018-11-12T18:10:15.955Z,6.53
2018-11-12T18:12:44.683Z,6.17
2018-11-12T18:15:15.659Z,6.40
2018-11-12T18:17:44.347Z,6.50
2018-11-12T18:20:15.896Z,6.90
2018-11-12T18:22:44.493Z,8.03
2018-11-12T18:25:13.489Z,5.17
2018-11-12T18:27:42.051Z,6.07
2018-11-12T18:30:16.122Z,4.80
2018-11-12T18:32:45.441Z,6.93
2018-11-12T18:35:14.301Z,7.83
2018-11-12T18:37:42.919Z,5.10
2018-11-12T18:40:13.196Z,6.93
2018-11-12T18:42:42.967Z,4.63
2018-11-12T18:45:14.684Z,7.73
2018-11-12T18:47:43.717Z,7.30
2018-11-12T18:50:17.813Z,6.33
2018-11-12T18:52:49.272Z,5.87
2018-11-12T18:55:20.850Z,7.40
2018-11-12T18:57:52.496Z,7.43
2018-11-12T19:00:24.945Z,8.47
2018-11-12T19:02:56.132Z,6.23
2018-11-12T19:05:29.476Z,11.88
2018-11-12T19:08:01.845Z,6.70
2018-11-12T19:10:32.653Z,6.40
2018-11-12T19:13:01.269Z,8.67
2018-11-12T19:15:33.601Z,8.50
2018-11-12T19:18:04.759Z,7.13
2018-11-12T19:20:33.422Z,12.47
2018-11-12T19:23:06.472Z,8.93
2018-11-12T19:25:35.054Z,7.13
2018-11-12T19:28:03.606Z,6.50
2018-11-12T19:30:32.548Z,6.77
2018-11-12T19:33:01.080Z,7.43
2018-11-12T19:35:31.110Z,6.93
2018-11-12T19:37:59.807Z,11.00
2018-11-12T19:40:29.522Z,7.43
2018-11-12T19:42:58.399Z,7.73
2018-11-12T19:45:27.016Z,8.07
2018-11-12T19:47:55.986Z,8.13
2018-11-12T19:50:26.852Z,10.57
2018-11-12T19:52:56.547Z,9.63
2018-11-12T19:55:25.182Z,7.50
2018-11-12T19:57:53.889Z,7.17
2018-11-12T20:00:24.042Z,7.50
2018-11-12T20:02:53.964Z,8.70
2018-11-12T20:05:22.680Z,7.87
2018-11-12T20:07:51.283Z,14.30
2018-11-12T20:10:21.069Z,15.97
2018-11-12T20:12:49.671Z,16.80
2018-11-12T20:15:19.615Z,11.00
2018-11-12T20:17:49.082Z,9.43
2018-11-12T20:20:19.700Z,9.17
2018-11-12T20:22:48.702Z,9.97
2018-11-12T20:25:18.089Z,8.70
2018-11-12T20:27:47.337Z,10.23
2018-11-12T20:30:18.999Z,9.87
2018-11-12T20:32:47.869Z,9.00
2018-11-12T20:35:16.561Z,9.67
2018-11-12T20:37:45.171Z,8.97
2018-11-12T20:40:14.927Z,10.00
2018-11-12T20:42:44.596Z,11.23
2018-11-12T20:45:14.503Z,9.10
2018-11-12T20:47:44.130Z,11.97
2018-11-12T20:50:13.690Z,10.50
2018-11-12T20:52:42.887Z,10.30
2018-11-12T20:55:12.695Z,9.37
2018-11-12T20:57:41.842Z,10.20
2018-11-12T21:00:22.042Z,9.40
2018-11-12T21:02:51.710Z,9.47
2018-11-12T21:05:22.013Z,9.87
2018-11-12T21:07:50.576Z,12.40
2018-11-12T21:10:20.280Z,11.70
2018-11-12T21:12:49.451Z,10.07
2018-11-12T21:15:19.190Z,12.57
2018-11-12T21:17:47.759Z,11.57
2018-11-12T21:20:18.004Z,13.13
2018-11-12T21:22:46.555Z,11.33
2018-11-12T21:25:16.445Z,15.67
2018-11-12T21:27:45.066Z,14.50
2018-11-12T21:30:17.203Z,11.43
2018-11-12T21:32:46.246Z,10.53
2018-11-12T21:35:14.929Z,10.47
2018-11-12T21:37:43.717Z,9.13
2018-11-12T21:40:16.672Z,10.67
2018-11-12T21:42:45.256Z,8.10
2018-11-12T21:45:15.547Z,8.73
2018-11-12T21:47:44.521Z,9.23
2018-11-12T21:50:14.981Z,8.97
2018-11-12T21:52:43.563Z,9.90
2018-11-12T21:55:12.875Z,8.93
2018-11-12T21:57:41.880Z,8.83
2018-11-12T22:00:16.978Z,8.67
2018-11-12T22:02:46.881Z,9.50
2018-11-12T22:05:15.638Z,10.30
2018-11-12T22:07:44.268Z,18.87
2018-11-12T22:10:14.287Z,9.40
2018-11-12T22:12:44.429Z,14.90
2018-11-12T22:15:13.441Z,16.93
2018-11-12T22:17:42.003Z,13.37
2018-11-12T22:20:11.921Z,13.53
2018-11-12T22:22:41.254Z,15.43
2018-11-12T22:25:11.961Z,13.63
2018-11-12T22:27:41.353Z,18.43
2018-11-12T22:30:12.510Z,15.47
2018-11-12T22:32:41.071Z,13.60
2018-11-12T22:35:10.302Z,16.00
2018-11-12T22:37:38.950Z,12.60
2018-11-12T22:40:09.337Z,12.53
2018-11-12T22:42:38.265Z,12.33
2018-11-12T22:45:08.563Z,10.73
2018-11-12T22:47:37.157Z,9.70
2018-11-12T22:50:07.176Z,10.00
2018-11-12T22:52:35.774Z,12.57
2018-11-12T22:55:04.672Z,10.20
2018-11-12T22:57:33.278Z,10.20
2018-11-12T23:00:02.224Z,10.17
2018-11-12T23:02:30.953Z,10.83
2018-11-12T23:04:59.474Z,9.60
2018-11-12T23:07:28.041Z,9.57
2018-11-12T23:09:56.577Z,8.63
2018-11-12T23:12:25.211Z,8.87
2018-11-12T23:14:53.734Z,8.97
2018-11-12T23:17:22.303Z,8.90
2018-11-12T23:19:50.896Z,8.33
2018-11-12T23:22:19.442Z,9.43
2018-11-12T23:24:47.988Z,11.67
2018-11-12T23:27:16.543Z,11.53
2018-11-12T23:29:45.078Z,24.57
2018-11-12T23:32:13.645Z,13.23
2018-11-12T23:34:42.172Z,10.97
2018-11-12T23:37:10.745Z,13.10
2018-11-12T23:39:39.266Z,10.50
2018-11-12T23:42:07.842Z,9.47
2018-11-12T23:44:36.397Z,11.00
2018-11-12T23:47:05.612Z,9.67
2018-11-12T23:49:34.302Z,15.73
2018-11-12T23:52:02.862Z,13.57
2018-11-12T23:54:31.390Z,12.03
2018-11-12T23:56:59.944Z,14.30
2018-11-12T23:59:28.478Z,13.60
